sensor_id;sensor_type;location;lat;lon;timestamp;temperature;humidity
9542;DHT22;4809;48.224;8.572;2023-05-10T00:00:00;11.70;99.90
9542;DHT22;4809;48.224;8.572;2023-05-10T00:02:30;11.60;99.90
9542;DHT22;4809;48.224;8.572;2023-05-10T00:04:56;11.70;99.90
9542;DHT22;4809;48.224;8.572;2023-05-10T00:07:21;11.70;99.90
9542;DHT22;4809;48.224;8.572;2023-05-10T00:09:47;11.60;99.90
9542;DHT22;4809;48.224;8.572;2023-05-10T00:12:12;11.60;99.90
9542;DHT22;4809;48.224;8.572;2023-05-10T00:14:38;11.60;99.90
9542;DHT22;4809;48.224;8.572;2023-05-10T00:17:04;11.60;99.90
9542;DHT22;4809;48.224;8.572;2023-05-10T00:19:29;11.60;99.90
9542;DHT22;4809;48.224;8.572;2023-05-10T00:21:55;11.60;99.90
9542;DHT22;4809;48.224;8.572;2023-05-10T00:24:21;11.60;99.90
9542;DHT22;4809;48.224;8.572;2023-05-10T00:26:46;11.60;99.90
9542;DHT22;4809;48.224;8.572;2023-05-10T00:29:12;11.60;99.90
9542;DHT22;4809;48.224;8.572;2023-05-10T00:31:37;11.60;99.90
9542;DHT22;4809;48.224;8.572;2023-05-10T00:34:03;11.60;99.90
9542;DHT22;4809;48.224;8.572;2023-05-10T00:36:29;11.60;99.90
9542;DHT22;4809;48.224;8.572;2023-05-10T00:38:54;11.60;99.90
9542;DHT22;4809;48.224;8.572;2023-05-10T00:41:20;11.60;99.90
9542;DHT22;4809;48.224;8.572;2023-05-10T00:43:46;11.50;99.90
9542;DHT22;4809;48.224;8.572;2023-05-10T00:46:13;11.50;99.90
9542;DHT22;4809;48.224;8.572;2023-05-10T00:48:39;11.50;99.90
9542;DHT22;4809;48.224;8.572;2023-05-10T00:51:05;11.50;99.90
9542;DHT22;4809;48.224;8.572;2023-05-10T00:53:31;11.50;99.90
9542;DHT22;4809;48.224;8.572;2023-05-10T00:55:58;11.50;99.90
9542;DHT22;4809;48.224;8.572;2023-05-10T00:58:24;11.50;99.90
9542;DHT22;4809;48.224;8.572;2023-05-10T01:00:55;11.50;99.90
9542;DHT22;4809;48.224;8.572;2023-05-10T01:03:22;11.50;99.90
9542;DHT22;4809;48.224;8.572;2023-05-10T01:05:48;11.50;99.90
9542;DHT22;4809;48.224;8.572;2023-05-10T01:08:14;11.50;99.90
9542;DHT22;4809;48.224;8.572;2023-05-10T01:10:40;11.50;99.90
9542;DHT22;4809;48.224;8.572;2023-05-10T01:13:06;11.50;99.90
9542;DHT22;4809;48.224;8.572;2023-05-10T01:15:32;11.50;99.90
9542;DHT22;4809;48.224;8.572;2023-05-10T01:17:58;11.50;99.90
9542;DHT22;4809;48.224;8.572;2023-05-10T01:20:24;11.50;99.90
9542;DHT22;4809;48.224;8.572;2023-05-10T01:31:27;11.50;99.90
9542;DHT22;4809;48.224;8.572;2023-05-10T01:34:14;11.40;99.90
9542;DHT22;4809;48.224;8.572;2023-05-10T01:36:48;11.50;99.90
9542;DHT22;4809;48.224;8.572;2023-05-10T01:39:24;11.50;99.90
9542;DHT22;4809;48.224;8.572;2023-05-10T01:41:54;11.50;99.90
9542;DHT22;4809;48.224;8.572;2023-05-10T01:44:42;11.50;99.90
9542;DHT22;4809;48.224;8.572;2023-05-10T01:47:15;11.50;99.90
9542;DHT22;4809;48.224;8.572;2023-05-10T01:49:54;11.50;99.90
9542;DHT22;4809;48.224;8.572;2023-05-10T01:52:25;11.50;99.90
9542;DHT22;4809;48.224;8.572;2023-05-10T01:54:59;11.50;99.90
9542;DHT22;4809;48.224;8.572;2023-05-10T01:57:29;11.50;99.90
9542;DHT22;4809;48.224;8.572;2023-05-10T01:59:56;11.50;99.90
9542;DHT22;4809;48.224;8.572;2023-05-10T02:02:24;11.50;99.90
9542;DHT22;4809;48.224;8.572;2023-05-10T02:04:53;11.50;99.90
9542;DHT22;4809;48.224;8.572;2023-05-10T02:07:21;11.40;99.90
9542;DHT22;4809;48.224;8.572;2023-05-10T02:09:48;11.40;99.90
9542;DHT22;4809;48.224;8.572;2023-05-10T02:12:13;11.30;99.90
9542;DHT22;4809;48.224;8.572;2023-05-10T02:14:41;11.30;99.90
9542;DHT22;4809;48.224;8.572;2023-05-10T02:17:08;11.20;99.90
9542;DHT22;4809;48.224;8.572;2023-05-10T02:19:37;11.30;99.90
9542;DHT22;4809;48.224;8.572;2023-05-10T02:22:05;11.30;99.90
9542;DHT22;4809;48.224;8.572;2023-05-10T02:24:32;11.30;99.90
9542;DHT22;4809;48.224;8.572;2023-05-10T02:26:59;11.30;99.90
9542;DHT22;4809;48.224;8.572;2023-05-10T02:29:27;11.30;99.90
9542;DHT22;4809;48.224;8.572;2023-05-10T02:31:54;11.30;99.90
9542;DHT22;4809;48.224;8.572;2023-05-10T02:34:26;11.30;99.90
9542;DHT22;4809;48.224;8.572;2023-05-10T02:36:53;11.30;99.90
9542;DHT22;4809;48.224;8.572;2023-05-10T02:39:19;11.40;99.90
9542;DHT22;4809;48.224;8.572;2023-05-10T02:41:46;11.30;99.90
9542;DHT22;4809;48.224;8.572;2023-05-10T02:44:15;11.30;99.90
9542;DHT22;4809;48.224;8.572;2023-05-10T02:46:43;11.30;99.90
9542;DHT22;4809;48.224;8.572;2023-05-10T02:49:09;11.30;99.90
9542;DHT22;4809;48.224;8.572;2023-05-10T02:51:37;11.30;99.90
9542;DHT22;4809;48.224;8.572;2023-05-10T02:54:22;11.30;99.90
9542;DHT22;4809;48.224;8.572;2023-05-10T02:56:58;11.40;99.90
9542;DHT22;4809;48.224;8.572;2023-05-10T02:59:28;11.40;99.90
9542;DHT22;4809;48.224;8.572;2023-05-10T03:01:54;11.40;99.90
9542;DHT22;4809;48.224;8.572;2023-05-10T03:04:19;11.50;99.90
9542;DHT22;4809;48.224;8.572;2023-05-10T03:06:46;11.40;99.90
9542;DHT22;4809;48.224;8.572;2023-05-10T03:09:12;11.40;99.90
9542;DHT22;4809;48.224;8.572;2023-05-10T03:14:25;11.40;99.90
9542;DHT22;4809;48.224;8.572;2023-05-10T03:17:06;11.40;99.90
9542;DHT22;4809;48.224;8.572;2023-05-10T03:19:40;11.40;99.90
9542;DHT22;4809;48.224;8.572;2023-05-10T03:22:10;11.40;99.90
9542;DHT22;4809;48.224;8.572;2023-05-10T03:24:36;11.40;99.90
9542;DHT22;4809;48.224;8.572;2023-05-10T03:27:05;11.30;99.90
9542;DHT22;4809;48.224;8.572;2023-05-10T03:29:31;11.30;99.90
9542;DHT22;4809;48.224;8.572;2023-05-10T03:32:01;11.30;99.90
9542;DHT22;4809;48.224;8.572;2023-05-10T03:34:26;11.30;99.90
9542;DHT22;4809;48.224;8.572;2023-05-10T03:36:55;11.30;99.90
9542;DHT22;4809;48.224;8.572;2023-05-10T03:39:21;11.30;99.90
9542;DHT22;4809;48.224;8.572;2023-05-10T03:41:46;11.30;99.90
9542;DHT22;4809;48.224;8.572;2023-05-10T03:44:12;11.30;99.90
9542;DHT22;4809;48.224;8.572;2023-05-10T03:46:38;11.30;99.90
9542;DHT22;4809;48.224;8.572;2023-05-10T03:49:03;11.20;99.90
9542;DHT22;4809;48.224;8.572;2023-05-10T03:51:29;11.20;99.90
9542;DHT22;4809;48.224;8.572;2023-05-10T03:53:56;11.20;99.90
9542;DHT22;4809;48.224;8.572;2023-05-10T03:56:22;11.20;99.90
9542;DHT22;4809;48.224;8.572;2023-05-10T03:58:48;11.20;99.90
9542;DHT22;4809;48.224;8.572;2023-05-10T04:01:13;11.20;99.90
9542;DHT22;4809;48.224;8.572;2023-05-10T04:03:39;11.20;99.90
9542;DHT22;4809;48.224;8.572;2023-05-10T04:06:05;11.20;99.90
9542;DHT22;4809;48.224;8.572;2023-05-10T04:08:31;11.20;99.90
9542;DHT22;4809;48.224;8.572;2023-05-10T04:11:11;11.20;99.90
9542;DHT22;4809;48.224;8.572;2023-05-10T04:13:37;11.20;99.90
9542;DHT22;4809;48.224;8.572;2023-05-10T04:16:03;11.20;99.90
9542;DHT22;4809;48.224;8.572;2023-05-10T04:18:29;11.30;99.90
9542;DHT22;4809;48.224;8.572;2023-05-10T04:20:55;11.20;99.90
9542;DHT22;4809;48.224;8.572;2023-05-10T04:23:21;11.20;99.90
9542;DHT22;4809;48.224;8.572;2023-05-10T04:25:47;11.20;99.90
9542;DHT22;4809;48.224;8.572;2023-05-10T04:28:12;11.20;99.90
9542;DHT22;4809;48.224;8.572;2023-05-10T04:30:38;11.10;99.90
9542;DHT22;4809;48.224;8.572;2023-05-10T04:33:04;11.20;99.90
9542;DHT22;4809;48.224;8.572;2023-05-10T04:35:29;11.20;99.90
9542;DHT22;4809;48.224;8.572;2023-05-10T04:37:55;11.10;99.90
9542;DHT22;4809;48.224;8.572;2023-05-10T04:40:21;11.10;99.90
9542;DHT22;4809;48.224;8.572;2023-05-10T04:42:46;11.20;99.90
9542;DHT22;4809;48.224;8.572;2023-05-10T04:45:12;11.10;99.90
9542;DHT22;4809;48.224;8.572;2023-05-10T04:47:40;11.10;99.90
9542;DHT22;4809;48.224;8.572;2023-05-10T04:50:06;11.10;99.90
9542;DHT22;4809;48.224;8.572;2023-05-10T04:52:32;11.00;99.90
9542;DHT22;4809;48.224;8.572;2023-05-10T04:54:58;10.90;99.90
9542;DHT22;4809;48.224;8.572;2023-05-10T04:57:24;10.90;99.90
9542;DHT22;4809;48.224;8.572;2023-05-10T04:59:49;10.90;99.90
9542;DHT22;4809;48.224;8.572;2023-05-10T05:02:15;10.90;99.90
9542;DHT22;4809;48.224;8.572;2023-05-10T05:04:41;10.80;99.90
9542;DHT22;4809;48.224;8.572;2023-05-10T05:07:06;10.80;99.90
9542;DHT22;4809;48.224;8.572;2023-05-10T05:09:32;10.80;99.90
9542;DHT22;4809;48.224;8.572;2023-05-10T05:11:58;10.80;99.90
9542;DHT22;4809;48.224;8.572;2023-05-10T05:14:23;10.80;99.90
9542;DHT22;4809;48.224;8.572;2023-05-10T05:16:51;10.90;99.90
9542;DHT22;4809;48.224;8.572;2023-05-10T05:19:17;10.90;99.90
9542;DHT22;4809;48.224;8.572;2023-05-10T05:21:43;11.00;99.90
9542;DHT22;4809;48.224;8.572;2023-05-10T05:24:09;11.00;99.90
9542;DHT22;4809;48.224;8.572;2023-05-10T05:26:35;11.10;99.90
9542;DHT22;4809;48.224;8.572;2023-05-10T05:29:02;11.20;99.90
9542;DHT22;4809;48.224;8.572;2023-05-10T05:31:28;11.30;99.90
9542;DHT22;4809;48.224;8.572;2023-05-10T05:33:54;11.40;99.90
9542;DHT22;4809;48.224;8.572;2023-05-10T05:36:20;11.40;99.90
9542;DHT22;4809;48.224;8.572;2023-05-10T05:38:46;11.40;99.90
9542;DHT22;4809;48.224;8.572;2023-05-10T05:41:12;11.50;99.90
9542;DHT22;4809;48.224;8.572;2023-05-10T05:43:38;11.50;99.90
9542;DHT22;4809;48.224;8.572;2023-05-10T05:46:03;11.50;99.90
9542;DHT22;4809;48.224;8.572;2023-05-10T05:48:32;11.50;99.90
9542;DHT22;4809;48.224;8.572;2023-05-10T05:50:58;11.50;99.90
9542;DHT22;4809;48.224;8.572;2023-05-10T05:53:23;11.60;99.90
9542;DHT22;4809;48.224;8.572;2023-05-10T05:55:57;11.70;99.90
9542;DHT22;4809;48.224;8.572;2023-05-10T05:58:23;11.70;99.90
9542;DHT22;4809;48.224;8.572;2023-05-10T06:00:50;11.80;99.90
9542;DHT22;4809;48.224;8.572;2023-05-10T06:03:15;11.80;99.90
9542;DHT22;4809;48.224;8.572;2023-05-10T06:05:41;11.90;99.90
9542;DHT22;4809;48.224;8.572;2023-05-10T06:08:07;11.90;99.90
9542;DHT22;4809;48.224;8.572;2023-05-10T06:10:32;12.00;99.90
9542;DHT22;4809;48.224;8.572;2023-05-10T06:12:58;12.10;99.90
9542;DHT22;4809;48.224;8.572;2023-05-10T06:15:24;12.20;99.90
9542;DHT22;4809;48.224;8.572;2023-05-10T06:17:49;12.20;99.90
9542;DHT22;4809;48.224;8.572;2023-05-10T06:20:15;12.30;99.90
9542;DHT22;4809;48.224;8.572;2023-05-10T06:22:41;12.30;99.90
9542;DHT22;4809;48.224;8.572;2023-05-10T06:25:08;12.40;99.90
9542;DHT22;4809;48.224;8.572;2023-05-10T06:27:33;12.40;99.90
9542;DHT22;4809;48.224;8.572;2023-05-10T06:29:59;12.40;99.90
9542;DHT22;4809;48.224;8.572;2023-05-10T06:32:25;12.40;99.90
9542;DHT22;4809;48.224;8.572;2023-05-10T06:34:51;12.30;99.90
9542;DHT22;4809;48.224;8.572;2023-05-10T06:37:17;12.30;99.90
9542;DHT22;4809;48.224;8.572;2023-05-10T06:39:43;12.40;99.90
9542;DHT22;4809;48.224;8.572;2023-05-10T06:42:08;12.30;99.90
9542;DHT22;4809;48.224;8.572;2023-05-10T06:44:34;12.20;99.90
9542;DHT22;4809;48.224;8.572;2023-05-10T06:47:00;12.20;99.90
9542;DHT22;4809;48.224;8.572;2023-05-10T06:49:25;12.10;99.90
9542;DHT22;4809;48.224;8.572;2023-05-10T06:51:51;12.00;99.90
9542;DHT22;4809;48.224;8.572;2023-05-10T06:54:17;12.00;99.90
9542;DHT22;4809;48.224;8.572;2023-05-10T06:56:43;11.90;99.90
9542;DHT22;4809;48.224;8.572;2023-05-10T06:59:08;11.90;99.90
9542;DHT22;4809;48.224;8.572;2023-05-10T07:01:34;12.00;99.90
9542;DHT22;4809;48.224;8.572;2023-05-10T07:04:00;12.10;99.90
9542;DHT22;4809;48.224;8.572;2023-05-10T07:06:26;12.20;99.90
9542;DHT22;4809;48.224;8.572;2023-05-10T07:08:52;12.20;99.90
9542;DHT22;4809;48.224;8.572;2023-05-10T07:11:18;12.30;99.90
9542;DHT22;4809;48.224;8.572;2023-05-10T07:13:44;12.40;99.90
9542;DHT22;4809;48.224;8.572;2023-05-10T07:16:11;12.40;99.90
9542;DHT22;4809;48.224;8.572;2023-05-10T07:18:37;12.50;99.90
9542;DHT22;4809;48.224;8.572;2023-05-10T07:21:03;12.60;99.90
9542;DHT22;4809;48.224;8.572;2023-05-10T07:23:28;12.60;99.90
9542;DHT22;4809;48.224;8.572;2023-05-10T07:25:55;12.60;99.90
9542;DHT22;4809;48.224;8.572;2023-05-10T07:28:23;12.60;99.90
9542;DHT22;4809;48.224;8.572;2023-05-10T07:30:49;12.70;99.90
9542;DHT22;4809;48.224;8.572;2023-05-10T07:33:15;12.70;99.90
9542;DHT22;4809;48.224;8.572;2023-05-10T07:35:41;12.60;99.90
9542;DHT22;4809;48.224;8.572;2023-05-10T07:38:07;12.50;99.90
9542;DHT22;4809;48.224;8.572;2023-05-10T07:40:33;12.40;99.90
9542;DHT22;4809;48.224;8.572;2023-05-10T07:42:59;12.30;99.90
9542;DHT22;4809;48.224;8.572;2023-05-10T07:45:27;12.20;99.90
9542;DHT22;4809;48.224;8.572;2023-05-10T07:47:52;12.10;99.90
9542;DHT22;4809;48.224;8.572;2023-05-10T07:50:18;12.10;99.90
9542;DHT22;4809;48.224;8.572;2023-05-10T07:52:44;12.20;99.90
9542;DHT22;4809;48.224;8.572;2023-05-10T07:55:10;12.20;99.90
9542;DHT22;4809;48.224;8.572;2023-05-10T07:57:36;12.20;99.90
9542;DHT22;4809;48.224;8.572;2023-05-10T08:00:02;12.20;99.90
9542;DHT22;4809;48.224;8.572;2023-05-10T08:02:28;12.00;99.90
9542;DHT22;4809;48.224;8.572;2023-05-10T08:04:53;11.90;99.90
9542;DHT22;4809;48.224;8.572;2023-05-10T08:07:19;11.80;99.90
9542;DHT22;4809;48.224;8.572;2023-05-10T08:09:45;11.80;99.90
9542;DHT22;4809;48.224;8.572;2023-05-10T08:12:10;11.80;99.90
9542;DHT22;4809;48.224;8.572;2023-05-10T08:14:36;11.90;99.90
9542;DHT22;4809;48.224;8.572;2023-05-10T08:17:03;12.00;99.90
9542;DHT22;4809;48.224;8.572;2023-05-10T08:19:29;12.00;99.90
9542;DHT22;4809;48.224;8.572;2023-05-10T08:21:54;12.00;99.90
9542;DHT22;4809;48.224;8.572;2023-05-10T08:24:21;12.00;99.90
9542;DHT22;4809;48.224;8.572;2023-05-10T08:26:47;12.10;99.90
9542;DHT22;4809;48.224;8.572;2023-05-10T08:29:13;12.20;99.90
9542;DHT22;4809;48.224;8.572;2023-05-10T08:31:39;12.30;99.90
9542;DHT22;4809;48.224;8.572;2023-05-10T08:34:05;12.40;99.90
9542;DHT22;4809;48.224;8.572;2023-05-10T08:36:30;12.40;99.90
9542;DHT22;4809;48.224;8.572;2023-05-10T08:38:57;12.40;99.90
9542;DHT22;4809;48.224;8.572;2023-05-10T08:41:24;12.30;99.90
9542;DHT22;4809;48.224;8.572;2023-05-10T08:43:54;12.30;99.90
9542;DHT22;4809;48.224;8.572;2023-05-10T08:46:22;12.40;99.90
9542;DHT22;4809;48.224;8.572;2023-05-10T08:48:49;12.40;99.90
9542;DHT22;4809;48.224;8.572;2023-05-10T08:51:22;12.40;99.90
9542;DHT22;4809;48.224;8.572;2023-05-10T08:53:48;12.50;99.90
9542;DHT22;4809;48.224;8.572;2023-05-10T08:56:15;12.60;99.90
9542;DHT22;4809;48.224;8.572;2023-05-10T08:58:41;12.70;99.90
9542;DHT22;4809;48.224;8.572;2023-05-10T09:01:07;12.80;99.90
9542;DHT22;4809;48.224;8.572;2023-05-10T09:03:34;12.90;99.90
9542;DHT22;4809;48.224;8.572;2023-05-10T09:06:00;13.10;99.90
9542;DHT22;4809;48.224;8.572;2023-05-10T09:08:26;13.30;99.90
9542;DHT22;4809;48.224;8.572;2023-05-10T09:10:53;13.60;99.90
9542;DHT22;4809;48.224;8.572;2023-05-10T09:13:19;13.70;99.90
9542;DHT22;4809;48.224;8.572;2023-05-10T09:15:46;13.80;99.90
9542;DHT22;4809;48.224;8.572;2023-05-10T09:18:12;14.00;99.90
9542;DHT22;4809;48.224;8.572;2023-05-10T09:20:38;14.20;99.90
9542;DHT22;4809;48.224;8.572;2023-05-10T09:23:04;14.30;99.90
9542;DHT22;4809;48.224;8.572;2023-05-10T09:25:30;14.60;99.90
9542;DHT22;4809;48.224;8.572;2023-05-10T09:27:58;14.70;99.90
9542;DHT22;4809;48.224;8.572;2023-05-10T09:30:28;14.90;99.90
9542;DHT22;4809;48.224;8.572;2023-05-10T09:32:55;15.10;99.90
9542;DHT22;4809;48.224;8.572;2023-05-10T09:35:23;15.00;99.90
9542;DHT22;4809;48.224;8.572;2023-05-10T09:37:51;14.80;99.90
9542;DHT22;4809;48.224;8.572;2023-05-10T09:40:18;14.80;99.90
9542;DHT22;4809;48.224;8.572;2023-05-10T09:43:10;15.10;99.90
9542;DHT22;4809;48.224;8.572;2023-05-10T09:45:36;15.50;99.90
9542;DHT22;4809;48.224;8.572;2023-05-10T09:48:03;15.70;99.90
9542;DHT22;4809;48.224;8.572;2023-05-10T09:50:29;15.80;99.90
9542;DHT22;4809;48.224;8.572;2023-05-10T09:53:00;15.90;99.90
9542;DHT22;4809;48.224;8.572;2023-05-10T09:55:41;16.20;99.90
9542;DHT22;4809;48.224;8.572;2023-05-10T09:58:08;16.40;99.90
9542;DHT22;4809;48.224;8.572;2023-05-10T10:00:38;16.50;99.90
9542;DHT22;4809;48.224;8.572;2023-05-10T10:03:04;16.20;99.90
9542;DHT22;4809;48.224;8.572;2023-05-10T10:05:32;15.90;99.90
9542;DHT22;4809;48.224;8.572;2023-05-10T10:07:58;15.90;99.90
9542;DHT22;4809;48.224;8.572;2023-05-10T10:10:25;15.70;99.90
9542;DHT22;4809;48.224;8.572;2023-05-10T10:12:51;15.30;99.90
9542;DHT22;4809;48.224;8.572;2023-05-10T10:15:18;15.00;99.90
9542;DHT22;4809;48.224;8.572;2023-05-10T10:17:44;14.80;99.90
9542;DHT22;4809;48.224;8.572;2023-05-10T10:20:11;14.60;99.90
9542;DHT22;4809;48.224;8.572;2023-05-10T10:22:37;14.30;99.90
9542;DHT22;4809;48.224;8.572;2023-05-10T10:25:04;14.10;99.90
9542;DHT22;4809;48.224;8.572;2023-05-10T10:27:43;14.00;99.90
9542;DHT22;4809;48.224;8.572;2023-05-10T10:30:25;13.30;99.90
9542;DHT22;4809;48.224;8.572;2023-05-10T10:35:31;12.40;99.90
9542;DHT22;4809;48.224;8.572;2023-05-10T10:37:57;12.20;99.90
9542;DHT22;4809;48.224;8.572;2023-05-10T10:40:30;12.20;99.90
9542;DHT22;4809;48.224;8.572;2023-05-10T10:42:57;12.40;99.90
9542;DHT22;4809;48.224;8.572;2023-05-10T10:45:26;12.60;99.90
9542;DHT22;4809;48.224;8.572;2023-05-10T10:48:21;12.60;99.90
9542;DHT22;4809;48.224;8.572;2023-05-10T10:50:47;12.50;99.90
9542;DHT22;4809;48.224;8.572;2023-05-10T10:53:13;12.30;99.90
9542;DHT22;4809;48.224;8.572;2023-05-10T10:55:48;12.20;99.90
9542;DHT22;4809;48.224;8.572;2023-05-10T10:58:48;12.20;99.90
9542;DHT22;4809;48.224;8.572;2023-05-10T11:01:18;12.30;99.90
9542;DHT22;4809;48.224;8.572;2023-05-10T11:04:17;12.30;99.90
9542;DHT22;4809;48.224;8.572;2023-05-10T11:06:43;12.40;99.90
9542;DHT22;4809;48.224;8.572;2023-05-10T11:09:09;12.40;99.90
9542;DHT22;4809;48.224;8.572;2023-05-10T11:11:36;12.50;99.90
9542;DHT22;4809;48.224;8.572;2023-05-10T11:14:13;12.50;99.90
9542;DHT22;4809;48.224;8.572;2023-05-10T11:16:43;12.60;99.90
9542;DHT22;4809;48.224;8.572;2023-05-10T11:19:11;12.70;99.90
9542;DHT22;4809;48.224;8.572;2023-05-10T11:22:12;12.70;99.90
9542;DHT22;4809;48.224;8.572;2023-05-10T11:24:36;13.00;99.90
9542;DHT22;4809;48.224;8.572;2023-05-10T11:27:02;13.00;99.90
9542;DHT22;4809;48.224;8.572;2023-05-10T11:29:28;13.00;99.90
9542;DHT22;4809;48.224;8.572;2023-05-10T11:31:57;13.10;99.90
9542;DHT22;4809;48.224;8.572;2023-05-10T11:36:54;13.40;99.90
9542;DHT22;4809;48.224;8.572;2023-05-10T11:39:21;13.50;99.90
9542;DHT22;4809;48.224;8.572;2023-05-10T11:41:50;13.70;99.90
9542;DHT22;4809;48.224;8.572;2023-05-10T11:44:16;13.70;99.90
9542;DHT22;4809;48.224;8.572;2023-05-10T11:46:42;13.80;99.90
9542;DHT22;4809;48.224;8.572;2023-05-10T11:49:07;14.20;99.90
9542;DHT22;4809;48.224;8.572;2023-05-10T11:51:34;14.40;99.90
9542;DHT22;4809;48.224;8.572;2023-05-10T11:54:09;14.70;99.90
9542;DHT22;4809;48.224;8.572;2023-05-10T11:56:36;15.10;99.90
9542;DHT22;4809;48.224;8.572;2023-05-10T11:59:02;15.50;99.90
9542;DHT22;4809;48.224;8.572;2023-05-10T12:01:29;15.70;99.90
9542;DHT22;4809;48.224;8.572;2023-05-10T12:03:56;15.80;99.90
9542;DHT22;4809;48.224;8.572;2023-05-10T12:06:34;16.00;99.90
9542;DHT22;4809;48.224;8.572;2023-05-10T12:09:05;16.20;99.90
9542;DHT22;4809;48.224;8.572;2023-05-10T12:11:32;16.30;99.90
9542;DHT22;4809;48.224;8.572;2023-05-10T12:13:57;16.60;99.90
9542;DHT22;4809;48.224;8.572;2023-05-10T12:16:25;16.70;99.90
9542;DHT22;4809;48.224;8.572;2023-05-10T12:18:52;16.70;99.90
9542;DHT22;4809;48.224;8.572;2023-05-10T12:21:20;17.00;99.90
9542;DHT22;4809;48.224;8.572;2023-05-10T12:23:48;17.10;99.90
9542;DHT22;4809;48.224;8.572;2023-05-10T12:26:14;16.90;99.90
9542;DHT22;4809;48.224;8.572;2023-05-10T12:28:40;16.70;99.90
9542;DHT22;4809;48.224;8.572;2023-05-10T12:31:06;16.30;99.90
9542;DHT22;4809;48.224;8.572;2023-05-10T12:33:40;16.00;99.90
9542;DHT22;4809;48.224;8.572;2023-05-10T12:36:13;16.00;99.90
9542;DHT22;4809;48.224;8.572;2023-05-10T12:38:44;15.70;99.90
9542;DHT22;4809;48.224;8.572;2023-05-10T12:41:14;15.70;99.90
9542;DHT22;4809;48.224;8.572;2023-05-10T12:43:40;15.90;99.90
9542;DHT22;4809;48.224;8.572;2023-05-10T12:48:32;16.90;99.90
9542;DHT22;4809;48.224;8.572;2023-05-10T12:50:59;17.20;99.90
9542;DHT22;4809;48.224;8.572;2023-05-10T12:53:25;17.50;99.90
9542;DHT22;4809;48.224;8.572;2023-05-10T12:55:51;17.50;99.90
9542;DHT22;4809;48.224;8.572;2023-05-10T12:58:17;17.20;99.90
9542;DHT22;4809;48.224;8.572;2023-05-10T13:00:42;16.80;99.90
9542;DHT22;4809;48.224;8.572;2023-05-10T13:03:09;16.60;99.90
9542;DHT22;4809;48.224;8.572;2023-05-10T13:05:36;16.20;99.90
9542;DHT22;4809;48.224;8.572;2023-05-10T13:08:02;15.90;99.90
9542;DHT22;4809;48.224;8.572;2023-05-10T13:10:30;15.60;99.90
9542;DHT22;4809;48.224;8.572;2023-05-10T13:12:56;15.20;99.90
9542;DHT22;4809;48.224;8.572;2023-05-10T13:15:22;14.90;99.90
9542;DHT22;4809;48.224;8.572;2023-05-10T13:17:48;14.50;99.90
9542;DHT22;4809;48.224;8.572;2023-05-10T13:20:13;14.30;99.90
9542;DHT22;4809;48.224;8.572;2023-05-10T13:22:40;14.20;99.90
9542;DHT22;4809;48.224;8.572;2023-05-10T13:25:06;14.20;99.90
9542;DHT22;4809;48.224;8.572;2023-05-10T13:27:32;14.20;99.90
9542;DHT22;4809;48.224;8.572;2023-05-10T13:29:57;14.30;99.90
9542;DHT22;4809;48.224;8.572;2023-05-10T13:32:25;14.50;99.90
9542;DHT22;4809;48.224;8.572;2023-05-10T13:34:51;14.80;99.90
9542;DHT22;4809;48.224;8.572;2023-05-10T13:37:17;15.00;99.90
9542;DHT22;4809;48.224;8.572;2023-05-10T13:39:42;15.50;99.90
9542;DHT22;4809;48.224;8.572;2023-05-10T13:42:08;15.80;99.90
9542;DHT22;4809;48.224;8.572;2023-05-10T13:44:34;16.10;99.90
9542;DHT22;4809;48.224;8.572;2023-05-10T13:47:00;16.30;99.90
9542;DHT22;4809;48.224;8.572;2023-05-10T13:49:25;16.40;99.90
9542;DHT22;4809;48.224;8.572;2023-05-10T13:51:51;16.50;99.90
9542;DHT22;4809;48.224;8.572;2023-05-10T13:54:17;16.40;99.90
9542;DHT22;4809;48.224;8.572;2023-05-10T13:56:45;16.00;99.90
9542;DHT22;4809;48.224;8.572;2023-05-10T13:59:13;15.70;99.90
9542;DHT22;4809;48.224;8.572;2023-05-10T14:01:40;15.60;99.90
9542;DHT22;4809;48.224;8.572;2023-05-10T14:04:06;15.50;99.90
9542;DHT22;4809;48.224;8.572;2023-05-10T14:06:35;15.30;99.90
9542;DHT22;4809;48.224;8.572;2023-05-10T14:09:02;15.00;99.90
9542;DHT22;4809;48.224;8.572;2023-05-10T14:11:27;14.80;99.90
9542;DHT22;4809;48.224;8.572;2023-05-10T14:13:53;14.60;99.90
9542;DHT22;4809;48.224;8.572;2023-05-10T14:16:19;14.30;99.90
9542;DHT22;4809;48.224;8.572;2023-05-10T14:18:49;14.10;99.90
9542;DHT22;4809;48.224;8.572;2023-05-10T14:21:14;14.00;99.90
9542;DHT22;4809;48.224;8.572;2023-05-10T14:23:40;13.90;99.90
9542;DHT22;4809;48.224;8.572;2023-05-10T14:26:06;13.90;99.90
9542;DHT22;4809;48.224;8.572;2023-05-10T14:28:32;13.80;99.90
9542;DHT22;4809;48.224;8.572;2023-05-10T14:30:58;13.80;99.90
9542;DHT22;4809;48.224;8.572;2023-05-10T14:33:24;13.70;99.90
9542;DHT22;4809;48.224;8.572;2023-05-10T14:35:50;13.60;99.90
9542;DHT22;4809;48.224;8.572;2023-05-10T14:38:16;13.50;99.90
9542;DHT22;4809;48.224;8.572;2023-05-10T14:40:42;13.50;99.90
9542;DHT22;4809;48.224;8.572;2023-05-10T14:43:08;13.40;99.90
9542;DHT22;4809;48.224;8.572;2023-05-10T14:45:34;13.30;99.90
9542;DHT22;4809;48.224;8.572;2023-05-10T14:48:00;13.20;99.90
9542;DHT22;4809;48.224;8.572;2023-05-10T14:50:30;13.10;99.90
9542;DHT22;4809;48.224;8.572;2023-05-10T14:52:55;13.30;99.90
9542;DHT22;4809;48.224;8.572;2023-05-10T14:55:21;13.40;99.90
9542;DHT22;4809;48.224;8.572;2023-05-10T14:57:47;13.60;99.90
9542;DHT22;4809;48.224;8.572;2023-05-10T15:00:15;13.90;99.90
9542;DHT22;4809;48.224;8.572;2023-05-10T15:02:41;14.20;99.90
9542;DHT22;4809;48.224;8.572;2023-05-10T15:05:07;14.50;99.90
9542;DHT22;4809;48.224;8.572;2023-05-10T15:07:33;14.70;99.90
9542;DHT22;4809;48.224;8.572;2023-05-10T15:09:58;15.00;99.90
9542;DHT22;4809;48.224;8.572;2023-05-10T15:12:24;15.30;99.90
9542;DHT22;4809;48.224;8.572;2023-05-10T15:14:50;15.50;99.90
9542;DHT22;4809;48.224;8.572;2023-05-10T15:17:15;15.50;99.90
9542;DHT22;4809;48.224;8.572;2023-05-10T15:19:41;15.40;99.90
9542;DHT22;4809;48.224;8.572;2023-05-10T15:22:07;15.40;99.90
9542;DHT22;4809;48.224;8.572;2023-05-10T15:24:33;15.20;99.90
9542;DHT22;4809;48.224;8.572;2023-05-10T15:26:59;15.20;99.90
9542;DHT22;4809;48.224;8.572;2023-05-10T15:29:25;15.20;99.90
9542;DHT22;4809;48.224;8.572;2023-05-10T15:31:51;15.40;99.90
9542;DHT22;4809;48.224;8.572;2023-05-10T15:34:17;15.30;99.90
9542;DHT22;4809;48.224;8.572;2023-05-10T15:36:43;15.20;99.90
9542;DHT22;4809;48.224;8.572;2023-05-10T15:39:10;15.30;99.90
9542;DHT22;4809;48.224;8.572;2023-05-10T15:41:36;15.40;99.90
9542;DHT22;4809;48.224;8.572;2023-05-10T15:44:02;15.60;99.90
9542;DHT22;4809;48.224;8.572;2023-05-10T15:46:28;15.50;99.90
9542;DHT22;4809;48.224;8.572;2023-05-10T15:48:54;15.50;99.90
9542;DHT22;4809;48.224;8.572;2023-05-10T15:51:20;15.60;99.90
9542;DHT22;4809;48.224;8.572;2023-05-10T15:53:46;15.50;99.90
9542;DHT22;4809;48.224;8.572;2023-05-10T15:56:11;15.40;99.90
9542;DHT22;4809;48.224;8.572;2023-05-10T15:58:40;15.40;99.90
9542;DHT22;4809;48.224;8.572;2023-05-10T16:01:06;15.40;99.90
9542;DHT22;4809;48.224;8.572;2023-05-10T16:03:33;15.40;99.90
9542;DHT22;4809;48.224;8.572;2023-05-10T16:05:59;15.40;99.90
9542;DHT22;4809;48.224;8.572;2023-05-10T16:08:26;15.40;99.90
9542;DHT22;4809;48.224;8.572;2023-05-10T16:10:52;15.30;99.90
9542;DHT22;4809;48.224;8.572;2023-05-10T16:13:18;15.30;99.90
9542;DHT22;4809;48.224;8.572;2023-05-10T16:15:44;15.20;99.90
9542;DHT22;4809;48.224;8.572;2023-05-10T16:18:10;15.40;99.90
9542;DHT22;4809;48.224;8.572;2023-05-10T16:20:35;15.30;99.90